Time;durP1;ratioP1;P1;durP2;ratioP2;P2;SDS_P1;SDS_P2;PMS_P1;PMS_P2;Temp;Humidity;BMP_temperature;BMP_pressure;BME280_temperature;BME280_humidity;BME280_pressure;Samples;Min_cycle;Max_cycle;Signal;HPM_P1;HPM_P2
2021/06/01 00:01:52;;;;;;;2.25;1.80;;;13.20;82.60;;;;;;6213773;23;20005;-75
2021/06/01 00:04:18;;;;;;;2.95;2.08;;;13.20;83.50;;;;;;6213033;23;20000;-67
2021/06/01 00:06:45;;;;;;;3.22;2.40;;;13.20;83.50;;;;;;6213499;23;20100;-65
2021/06/01 00:09:14;;;;;;;2.35;2.15;;;13.20;84.10;;;;;;6213126;23;20020;-68
2021/06/01 00:11:40;;;;;;;3.25;1.88;;;13.10;83.80;;;;;;6212401;23;20058;-65
2021/06/01 00:14:07;;;;;;;2.92;2.25;;;13.10;82.90;;;;;;6214201;23;20040;-65
2021/06/01 00:16:34;;;;;;;3.53;2.30;;;13.10;83.50;;;;;;6212103;23;20016;-64
2021/06/01 00:19:00;;;;;;;3.60;2.05;;;13.00;83.10;;;;;;6212286;23;20012;-63
2021/06/01 00:21:26;;;;;;;2.55;1.75;;;13.00;83.10;;;;;;6214265;23;20020;-65
2021/06/01 00:23:54;;;;;;;3.75;2.17;;;13.00;82.70;;;;;;6212793;23;20077;-64
2021/06/01 00:26:20;;;;;;;2.15;1.58;;;13.00;83.30;;;;;;6213829;23;20054;-67
2021/06/01 00:28:46;;;;;;;3.15;2.30;;;13.00;82.40;;;;;;6213563;23;20004;-69
2021/06/01 00:31:11;;;;;;;2.88;2.28;;;13.00;81.80;;;;;;6211360;23;20537;-63
2021/06/01 00:33:38;;;;;;;3.38;2.20;;;13.00;82.70;;;;;;6213568;23;20001;-71
2021/06/01 00:36:04;;;;;;;2.25;2.00;;;13.00;82.30;;;;;;6213720;23;20015;-68
2021/06/01 00:38:29;;;;;;;4.03;2.25;;;13.00;82.70;;;;;;6213034;23;20000;-65
2021/06/01 00:40:56;;;;;;;2.97;2.25;;;12.90;83.10;;;;;;6213023;23;20012;-65
2021/06/01 00:43:22;;;;;;;2.67;1.90;;;12.90;82.50;;;;;;6213798;23;20028;-69
2021/06/01 00:45:48;;;;;;;5.82;2.28;;;12.90;82.60;;;;;;6212463;23;20005;-64
2021/06/01 00:48:13;;;;;;;4.15;2.30;;;12.90;83.00;;;;;;6213272;23;20076;-63
2021/06/01 00:50:39;;;;;;;2.80;2.17;;;12.90;83.20;;;;;;6213161;23;20472;-63
2021/06/01 00:53:06;;;;;;;4.90;2.33;;;12.90;84.10;;;;;;6212142;23;20050;-63
2021/06/01 00:55:32;;;;;;;3.63;1.90;;;12.90;84.60;;;;;;6212551;23;20004;-64
2021/06/01 00:57:58;;;;;;;2.75;1.95;;;12.80;84.50;;;;;;6213497;23;20011;-64
2021/06/01 01:02:59;;;;;;;3.10;2.20;;;12.80;82.90;;;;;;6223434;23;20314;-64
2021/06/01 01:05:31;;;;;;;3.55;1.90;;;12.80;83.00;;;;;;6212827;23;20071;-64
2021/06/01 01:10:59;;;;;;;6.13;2.33;;;12.90;80.80;;;;;;6223576;23;20004;-64
2021/06/01 01:13:27;;;;;;;2.83;2.00;;;13.00;82.20;;;;;;6212735;23;20008;-64
2021/06/01 01:15:55;;;;;;;7.32;2.80;;;13.00;82.70;;;;;;6212838;23;20016;-66
2021/06/01 01:18:23;;;;;;;4.32;2.30;;;12.90;82.70;;;;;;6213343;23;20001;-63
2021/06/01 01:20:49;;;;;;;2.83;2.03;;;12.90;83.60;;;;;;6211751;23;20429;-64
2021/06/01 01:23:18;;;;;;;3.67;1.92;;;12.80;82.70;;;;;;6211575;23;20396;-64
2021/06/01 01:26:17;;;;;;;4.88;2.10;;;12.80;82.10;;;;;;5108569;27;20445;-64
2021/06/01 01:29:31;;;;;;;3.33;2.22;;;12.80;82.50;;;;;;5106469;28;20023;-65
2021/06/01 01:31:59;;;;;;;3.95;2.40;;;12.70;80.80;;;;;;5092027;28;20395;-64
2021/06/01 01:34:27;;;;;;;3.75;2.10;;;12.70;83.00;;;;;;5108187;28;20023;-64
2021/06/01 01:36:54;;;;;;;3.15;2.03;;;12.60;82.20;;;;;;5108179;28;20035;-65
2021/06/01 01:39:21;;;;;;;3.25;2.10;;;12.60;83.30;;;;;;5108460;28;20024;-64
2021/06/01 01:41:47;;;;;;;3.05;2.17;;;12.50;84.30;;;;;;5106031;28;20024;-64
2021/06/01 01:44:16;;;;;;;3.50;2.13;;;12.50;83.30;;;;;;5108202;28;20035;-65
2021/06/01 01:49:15;;;;;;;7.22;2.45;;;12.40;84.90;;;;;;5107952;28;20038;-73
2021/06/01 01:51:45;;;;;;;5.03;3.00;;;12.40;86.20;;;;;;5108111;28;20028;-72
2021/06/01 01:54:17;;;;;;;2.47;2.28;;;12.30;86.10;;;;;;5108159;28;20022;-74
2021/06/01 01:56:46;;;;;;;2.42;2.22;;;12.20;86.20;;;;;;5107199;28;20019;-72
2021/06/01 01:59:15;;;;;;;6.03;2.05;;;12.10;87.00;;;;;;5107888;28;20476;-67
2021/06/01 02:01:42;;;;;;;3.03;2.30;;;12.10;86.50;;;;;;5107216;28;20034;-67
2021/06/01 02:04:08;;;;;;;4.00;2.60;;;12.00;86.90;;;;;;5106639;28;20375;-65
2021/06/01 02:06:33;;;;;;;3.63;2.33;;;12.00;86.50;;;;;;5106401;28;20016;-68
2021/06/01 02:08:59;;;;;;;6.15;2.58;;;12.00;86.80;;;;;;5107087;28;20020;-67
2021/06/01 02:11:25;;;;;;;3.47;2.40;;;12.00;86.70;;;;;;5107858;28;20093;-64
2021/06/01 02:13:53;;;;;;;4.15;2.55;;;12.00;86.50;;;;;;5107744;28;20119;-64
2021/06/01 02:16:20;;;;;;;3.60;2.28;;;12.00;86.90;;;;;;5106968;28;20028;-64
2021/06/01 02:18:47;;;;;;;4.10;2.45;;;11.90;87.20;;;;;;5106474;28;20036;-68
2021/06/01 02:21:46;;;;;;;4.82;2.63;;;11.90;87.60;;;;;;5107785;28;20471;-65
2021/06/01 02:24:32;;;;;;;4.63;2.35;;;11.80;86.90;;;;;;5105367;28;20492;-64
2021/06/01 02:27:15;;;;;;;3.72;2.53;;;11.80;87.30;;;;;;5107788;28;20024;-64
2021/06/01 02:29:52;;;;;;;5.57;2.65;;;11.80;87.60;;;;;;5107180;28;20024;-65
2021/06/01 02:32:19;;;;;;;4.22;3.25;;;11.80;87.50;;;;;;5107419;28;20073;-64
2021/06/01 02:34:46;;;;;;;3.33;2.55;;;11.80;86.90;;;;;;5107338;28;20028;-63
2021/06/01 02:37:12;;;;;;;5.95;2.78;;;11.70;87.00;;;;;;5092981;28;20020;-65
2021/06/01 02:39:39;;;;;;;4.72;3.17;;;11.70;86.50;;;;;;5093823;28;20027;-64
2021/06/01 02:42:06;;;;;;;3.85;2.70;;;11.70;87.30;;;;;;5093681;28;20209;-65
2021/06/01 02:44:34;;;;;;;4.80;2.80;;;11.70;88.10;;;;;;5092809;28;20096;-67
2021/06/01 02:47:00;;;;;;;5.40;2.63;;;11.60;88.60;;;;;;5093302;28;20031;-65
2021/06/01 02:49:27;;;;;;;5.13;2.83;;;11.60;88.90;;;;;;5093937;28;20023;-64
2021/06/01 02:51:54;;;;;;;5.10;3.45;;;11.50;89.20;;;;;;5092802;28;20023;-67
2021/06/01 02:54:21;;;;;;;4.80;2.85;;;11.50;89.60;;;;;;5093497;28;20028;-64
2021/06/01 02:56:49;;;;;;;4.88;2.90;;;11.50;89.80;;;;;;5093243;28;20089;-66
2021/06/01 02:59:16;;;;;;;5.22;3.15;;;11.40;89.90;;;;;;5092661;28;20027;-66
2021/06/01 03:01:42;;;;;;;4.95;3.00;;;11.40;89.90;;;;;;5093086;28;20028;-66
2021/06/01 03:04:08;;;;;;;5.43;3.00;;;11.30;90.00;;;;;;5093373;28;20035;-66
2021/06/01 03:06:34;;;;;;;4.05;3.17;;;11.30;90.20;;;;;;5092408;28;20388;-64
2021/06/01 03:09:00;;;;;;;3.72;2.80;;;11.30;90.20;;;;;;5093294;28;20020;-68
2021/06/01 03:11:26;;;;;;;6.10;2.72;;;11.20;90.30;;;;;;5093409;28;20564;-66
2021/06/01 03:13:53;;;;;;;3.85;2.72;;;11.20;90.40;;;;;;5092409;28;20028;-64
2021/06/01 03:16:20;;;;;;;4.45;2.85;;;11.10;90.50;;;;;;5092776;28;20027;-67
2021/06/01 03:18:46;;;;;;;4.88;2.90;;;11.10;90.50;;;;;;5092670;28;20600;-66
2021/06/01 03:21:13;;;;;;;5.18;2.78;;;11.10;90.60;;;;;;5092197;28;20020;-67
2021/06/01 03:23:39;;;;;;;3.72;3.08;;;11.10;90.60;;;;;;5092697;28;20034;-65
2021/06/01 03:26:05;;;;;;;4.53;2.92;;;11.00;90.70;;;;;;5092517;28;20032;-67
2021/06/01 03:28:33;;;;;;;5.22;3.78;;;11.00;90.70;;;;;;5092662;28;20035;-66
2021/06/01 03:30:58;;;;;;;3.60;2.88;;;11.00;90.70;;;;;;5092698;28;20025;-66
2021/06/01 03:33:24;;;;;;;3.75;3.20;;;11.00;90.70;;;;;;5092145;28;20039;-68
2021/06/01 03:35:49;;;;;;;3.70;3.08;;;11.00;90.70;;;;;;5091208;28;20028;-67
2021/06/01 03:38:15;;;;;;;4.30;3.25;;;11.00;90.70;;;;;;5092566;28;20040;-65
2021/06/01 03:40:41;;;;;;;3.42;3.00;;;11.00;91.10;;;;;;5091693;28;20037;-65
2021/06/01 03:43:07;;;;;;;4.40;3.08;;;11.00;90.90;;;;;;5092720;28;20024;-65
2021/06/01 03:45:33;;;;;;;4.35;3.13;;;10.90;91.00;;;;;;5092117;28;20504;-65
2021/06/01 03:47:59;;;;;;;4.60;3.63;;;11.00;91.10;;;;;;5090887;28;20031;-65
2021/06/01 03:50:25;;;;;;;7.90;3.28;;;11.00;91.20;;;;;;5092593;28;20027;-73
2021/06/01 03:52:51;;;;;;;3.13;2.83;;;10.90;91.30;;;;;;5092437;28;20051;-74
2021/06/01 03:55:18;;;;;;;5.10;2.67;;;10.90;91.30;;;;;;5091566;28;20051;-72
2021/06/01 03:57:48;;;;;;;7.10;4.10;;;10.90;91.40;;;;;;5092141;28;20020;-72
2021/06/01 04:00:15;;;;;;;9.05;3.42;;;10.90;91.50;;;;;;5092170;28;20020;-74
2021/06/01 04:02:41;;;;;;;7.53;4.10;;;10.90;91.50;;;;;;5091293;28;20020;-71
2021/06/01 04:05:07;;;;;;;4.60;2.72;;;10.90;91.50;;;;;;5091950;28;20028;-65
2021/06/01 04:07:33;;;;;;;4.70;3.45;;;10.90;91.50;;;;;;5091801;28;20052;-67
2021/06/01 04:09:58;;;;;;;5.78;3.55;;;11.00;91.50;;;;;;5091495;28;20062;-66
2021/06/01 04:12:24;;;;;;;5.25;3.08;;;11.00;91.50;;;;;;5092232;28;20091;-65
2021/06/01 04:14:50;;;;;;;6.35;3.00;;;11.00;91.50;;;;;;5091855;28;20382;-68
2021/06/01 04:17:15;;;;;;;4.45;3.22;;;11.10;91.50;;;;;;5089748;28;20024;-66
2021/06/01 04:19:41;;;;;;;4.88;3.50;;;11.10;91.60;;;;;;5091654;28;20024;-65
2021/06/01 04:22:06;;;;;;;4.90;3.28;;;11.10;91.40;;;;;;5091712;28;20024;-67
2021/06/01 04:24:32;;;;;;;4.82;3.10;;;11.10;91.50;;;;;;5090676;28;20048;-63
2021/06/01 04:26:59;;;;;;;4.18;3.28;;;11.20;91.60;;;;;;5090606;28;20020;-66
2021/06/01 04:29:25;;;;;;;6.30;3.05;;;11.20;91.50;;;;;;5089939;28;20016;-67
2021/06/01 04:31:51;;;;;;;4.03;3.20;;;11.20;91.40;;;;;;5090709;28;20093;-63
2021/06/01 04:34:16;;;;;;;4.43;3.60;;;11.30;91.40;;;;;;5091445;28;20016;-64
2021/06/01 04:36:42;;;;;;;3.92;3.03;;;11.30;91.50;;;;;;5089544;28;20036;-64
2021/06/01 04:39:08;;;;;;;7.25;3.13;;;11.30;91.60;;;;;;5091578;28;20024;-65
2021/06/01 04:41:34;;;;;;;4.35;3.20;;;11.30;91.60;;;;;;5091173;28;20020;-64
2021/06/01 04:43:59;;;;;;;5.05;2.65;;;11.30;91.50;;;;;;5110499;28;20039;-63
2021/06/01 04:46:25;;;;;;;4.47;3.00;;;11.30;91.40;;;;;;5111829;28;20038;-66
2021/06/01 04:48:51;;;;;;;6.45;3.30;;;11.40;91.00;;;;;;5111505;28;20027;-64
2021/06/01 04:51:18;;;;;;;5.00;3.60;;;11.50;90.80;;;;;;5110989;28;20115;-64
2021/06/01 04:54:04;;;;;;;4.20;3.10;;;11.60;90.80;;;;;;5105386;28;20024;-67
2021/06/01 04:56:29;;;;;;;4.38;3.10;;;11.70;90.70;;;;;;5080391;28;20418;-64
2021/06/01 04:58:56;;;;;;;3.75;3.33;;;11.70;90.50;;;;;;5090196;28;20024;-66
2021/06/01 05:01:22;;;;;;;5.10;2.85;;;11.80;90.50;;;;;;5090909;28;20031;-69
2021/06/01 05:03:48;;;;;;;4.55;3.17;;;11.90;90.90;;;;;;5090924;28;20032;-63
2021/06/01 05:06:14;;;;;;;5.63;3.58;;;11.90;90.50;;;;;;5090315;28;20103;-69
2021/06/01 05:08:39;;;;;;;5.13;3.63;;;12.00;90.60;;;;;;5091100;28;20104;-64
2021/06/01 05:11:05;;;;;;;6.15;3.20;;;12.00;90.30;;;;;;5090979;28;20062;-72
2021/06/01 05:13:31;;;;;;;4.68;3.15;;;12.10;90.00;;;;;;5089743;28;20031;-69
2021/06/01 05:15:57;;;;;;;5.45;3.20;;;12.20;90.20;;;;;;5089469;28;20020;-71
2021/06/01 05:18:23;;;;;;;5.10;3.60;;;12.30;90.00;;;;;;5091278;28;20044;-72
2021/06/01 05:20:49;;;;;;;4.88;2.97;;;12.40;90.00;;;;;;5090102;28;20059;-66
2021/06/01 05:23:15;;;;;;;4.32;3.25;;;12.50;89.80;;;;;;5089449;28;20028;-73
2021/06/01 05:25:42;;;;;;;5.65;3.58;;;12.60;89.80;;;;;;5089255;28;20044;-68
2021/06/01 05:28:08;;;;;;;3.53;3.22;;;12.70;90.00;;;;;;5091078;28;20073;-71
2021/06/01 05:30:57;;;;;;;6.40;3.25;;;12.80;89.50;;;;;;5090424;28;20021;-72
2021/06/01 05:33:26;;;;;;;7.30;3.90;;;12.90;88.40;;;;;;5090143;28;20488;-72
2021/06/01 05:35:53;;;;;;;6.88;3.35;;;13.10;87.90;;;;;;5090754;28;20894;-71
2021/06/01 05:38:27;;;;;;;9.45;3.78;;;13.20;87.60;;;;;;5090670;28;20032;-69
2021/06/01 05:40:53;;;;;;;5.45;3.58;;;13.30;86.60;;;;;;5089725;28;20052;-71
2021/06/01 05:43:19;;;;;;;6.30;4.03;;;13.50;85.80;;;;;;5089836;28;20028;-69
2021/06/01 05:45:45;;;;;;;4.65;3.22;;;13.60;84.50;;;;;;5090441;28;20126;-75
2021/06/01 05:48:12;;;;;;;7.13;3.90;;;13.70;83.80;;;;;;5084655;28;20031;-72
2021/06/01 05:50:38;;;;;;;6.03;3.38;;;13.90;83.20;;;;;;5085557;28;20024;-68
2021/06/01 05:53:05;;;;;;;5.53;3.45;;;14.10;82.50;;;;;;5088749;28;20057;-69
2021/06/01 05:55:32;;;;;;;6.10;3.67;;;14.20;81.60;;;;;;5089047;28;20021;-66
2021/06/01 05:57:57;;;;;;;5.03;3.42;;;14.40;82.00;;;;;;5088500;28;20032;-66
2021/06/01 06:00:24;;;;;;;7.45;3.40;;;14.50;80.80;;;;;;5090270;28;20024;-66
2021/06/01 06:02:50;;;;;;;6.70;3.83;;;14.60;80.90;;;;;;5089606;28;20020;-72
2021/06/01 06:05:16;;;;;;;6.95;3.67;;;14.70;79.80;;;;;;5088899;28;20035;-70
2021/06/01 06:07:43;;;;;;;6.50;3.97;;;14.80;78.50;;;;;;5089656;28;20452;-67
2021/06/01 06:10:09;;;;;;;5.60;3.38;;;15.00;77.70;;;;;;5089761;28;20027;-69
2021/06/01 06:12:35;;;;;;;5.35;3.28;;;15.20;78.00;;;;;;5093412;28;20028;-69
2021/06/01 06:15:03;;;;;;;6.38;4.15;;;15.30;76.80;;;;;;5092545;28;20028;-73
2021/06/01 06:17:40;;;;;;;5.85;3.67;;;15.40;75.70;;;;;;5094244;28;20172;-69
2021/06/01 06:20:07;;;;;;;4.82;3.33;;;15.50;76.70;;;;;;5093769;28;20028;-73
2021/06/01 06:22:33;;;;;;;4.70;3.58;;;15.60;76.20;;;;;;5092873;28;20027;-69
2021/06/01 06:25:00;;;;;;;6.70;3.60;;;15.70;76.20;;;;;;5093057;28;20123;-73
2021/06/01 06:27:26;;;;;;;4.72;3.15;;;15.80;76.00;;;;;;5094068;28;20077;-69
2021/06/01 06:29:51;;;;;;;4.40;3.30;;;15.90;75.80;;;;;;5092933;28;20023;-73
2021/06/01 06:32:17;;;;;;;4.47;3.38;;;16.00;75.60;;;;;;5093416;28;20020;-71
2021/06/01 06:34:44;;;;;;;4.82;3.47;;;16.00;75.40;;;;;;5093235;28;20028;-72
2021/06/01 06:37:09;;;;;;;4.72;3.40;;;16.10;75.10;;;;;;5093100;28;20106;-69
2021/06/01 06:39:35;;;;;;;4.15;3.72;;;16.20;74.60;;;;;;5093432;28;20448;-74
2021/06/01 06:42:01;;;;;;;5.80;3.38;;;16.30;74.30;;;;;;5092077;28;20028;-66
2021/06/01 06:44:27;;;;;;;4.40;3.13;;;16.40;73.80;;;;;;5090667;28;20039;-72
2021/06/01 06:49:38;;;;;;;6.90;3.40;;;16.60;73.70;;;;;;5092383;28;20036;-67
2021/06/01 06:52:08;;;;;;;4.78;3.22;;;16.70;74.00;;;;;;5091495;28;20016;-72
2021/06/01 06:54:33;;;;;;;8.70;3.78;;;16.80;73.90;;;;;;5092002;28;20479;-66
2021/06/01 06:56:59;;;;;;;4.78;3.50;;;16.90;73.70;;;;;;5091047;28;20028;-69
2021/06/01 06:59:25;;;;;;;4.15;3.55;;;17.00;72.10;;;;;;5093182;28;20024;-66
2021/06/01 07:01:50;;;;;;;5.18;3.95;;;17.10;72.60;;;;;;5091969;28;20055;-77
2021/06/01 07:04:16;;;;;;;6.65;3.60;;;17.20;72.10;;;;;;5092081;28;20547;-70
2021/06/01 07:06:46;;;;;;;5.88;3.97;;;17.30;71.20;;;;;;5092716;28;20507;-74
2021/06/01 07:09:12;;;;;;;5.65;3.80;;;17.40;70.80;;;;;;5072795;28;20392;-74
2021/06/01 07:11:37;;;;;;;5.95;4.07;;;17.50;70.50;;;;;;5071451;28;20031;-79
2021/06/01 07:14:11;;;;;;;6.78;3.70;;;17.50;70.10;;;;;;5072152;28;20038;-76
2021/06/01 07:16:40;;;;;;;6.72;3.80;;;17.60;70.10;;;;;;5072214;28;20052;-67
2021/06/01 07:19:05;;;;;;;4.93;3.90;;;17.70;69.50;;;;;;5085097;28;20035;-69
2021/06/01 07:21:31;;;;;;;5.00;3.78;;;17.80;70.00;;;;;;5092254;28;20487;-65
2021/06/01 07:23:57;;;;;;;5.25;4.20;;;17.90;68.70;;;;;;5091061;28;20124;-71
2021/06/01 07:26:23;;;;;;;4.15;3.45;;;17.90;68.80;;;;;;5091583;28;20106;-75
2021/06/01 07:28:50;;;;;;;7.28;4.03;;;18.00;68.50;;;;;;5092013;28;20110;-68
2021/06/01 07:31:17;;;;;;;4.18;3.78;;;18.10;68.40;;;;;;5092418;28;20032;-71
2021/06/01 07:33:43;;;;;;;4.80;3.90;;;18.10;68.00;;;;;;5091349;28;20023;-74
2021/06/01 07:36:10;;;;;;;7.13;3.88;;;18.20;67.80;;;;;;5092659;28;20396;-67
2021/06/01 07:38:36;;;;;;;4.68;4.20;;;18.20;68.10;;;;;;5091405;28;20024;-73
2021/06/01 07:41:03;;;;;;;5.20;3.90;;;18.20;67.70;;;;;;5089331;28;20024;-68
2021/06/01 07:43:29;;;;;;;7.43;4.20;;;18.30;68.40;;;;;;5092322;28;20020;-69
2021/06/01 07:45:55;;;;;;;11.82;4.10;;;18.30;68.70;;;;;;5091479;28;20028;-71
2021/06/01 07:48:21;;;;;;;9.48;4.45;;;18.40;68.00;;;;;;5107925;28;20031;-65
2021/06/01 07:50:46;;;;;;;5.50;4.43;;;18.50;67.70;;;;;;5095431;28;20091;-65
2021/06/01 07:53:12;;;;;;;6.97;3.78;;;18.50;67.30;;;;;;5092000;28;20020;-65
2021/06/01 07:55:37;;;;;;;4.25;3.58;;;18.50;67.70;;;;;;5090571;28;20020;-67
2021/06/01 07:58:03;;;;;;;3.92;3.40;;;18.60;68.70;;;;;;5090873;28;20048;-67
2021/06/01 08:00:29;;;;;;;4.95;4.00;;;18.80;69.00;;;;;;5089135;28;20012;-74
2021/06/01 08:02:54;;;;;;;7.68;4.18;;;18.90;68.20;;;;;;5091367;28;20024;-67
2021/06/01 08:05:20;;;;;;;5.53;4.57;;;19.00;68.20;;;;;;5088942;28;20028;-71
2021/06/01 08:07:48;;;;;;;4.93;3.80;;;19.10;67.70;;;;;;5090414;28;20028;-68
2021/06/01 08:10:16;;;;;;;8.25;4.40;;;19.20;68.10;;;;;;5089697;28;20052;-67
2021/06/01 08:12:42;;;;;;;7.57;4.05;;;19.30;67.80;;;;;;5091200;28;20027;-65
2021/06/01 08:15:09;;;;;;;5.20;4.32;;;19.30;66.70;;;;;;5088526;28;20371;-65
2021/06/01 08:17:35;;;;;;;9.60;4.40;;;19.40;66.70;;;;;;5092012;28;20099;-67
2021/06/01 08:20:14;;;;;;;4.80;3.60;;;19.50;66.60;;;;;;5091991;28;20085;-66
2021/06/01 08:22:41;;;;;;;8.57;3.95;;;19.60;66.60;;;;;;5090852;28;20062;-64
2021/06/01 08:25:07;;;;;;;6.28;3.65;;;19.70;67.40;;;;;;5091410;28;20051;-64
2021/06/01 08:27:33;;;;;;;4.95;4.10;;;19.80;67.00;;;;;;5091621;28;20438;-64
2021/06/01 08:29:58;;;;;;;5.75;3.70;;;19.90;66.70;;;;;;5090902;28;20024;-64
2021/06/01 08:32:25;;;;;;;4.43;3.83;;;20.00;66.60;;;;;;5091819;28;20024;-64
2021/06/01 08:34:51;;;;;;;4.57;3.40;;;20.00;65.60;;;;;;5090884;28;20393;-65
2021/06/01 08:37:16;;;;;;;4.70;3.50;;;20.20;66.00;;;;;;5090738;28;20115;-64
2021/06/01 08:39:42;;;;;;;7.03;3.58;;;20.20;66.40;;;;;;5089819;28;20410;-67
2021/06/01 08:42:07;;;;;;;5.53;3.60;;;20.40;66.10;;;;;;5093319;28;20099;-77
2021/06/01 08:44:33;;;;;;;4.20;3.17;;;20.40;65.40;;;;;;5090832;28;20504;-73
2021/06/01 08:47:01;;;;;;;3.20;2.90;;;20.50;65.40;;;;;;5091591;28;20016;-66
2021/06/01 08:49:27;;;;;;;6.22;3.38;;;20.60;66.00;;;;;;5091668;28;20028;-74
2021/06/01 08:51:52;;;;;;;4.47;3.53;;;20.70;65.80;;;;;;5090471;28;20027;-71
2021/06/01 08:54:18;;;;;;;5.75;3.38;;;20.80;64.90;;;;;;5091079;28;20024;-75
2021/06/01 08:56:44;;;;;;;4.75;3.75;;;20.90;64.60;;;;;;5090469;28;20468;-77
2021/06/01 08:59:11;;;;;;;5.93;3.20;;;21.00;63.90;;;;;;5091297;28;20036;-70
2021/06/01 09:01:37;;;;;;;5.57;3.10;;;21.00;63.90;;;;;;5091171;28;20027;-74
2021/06/01 09:04:08;;;;;;;6.32;3.15;;;21.10;63.70;;;;;;5090544;28;20028;-68
2021/06/01 09:06:53;;;;;;;6.85;3.15;;;21.10;63.00;;;;;;5090778;28;20031;-74
2021/06/01 09:09:42;;;;;;;4.32;3.13;;;21.20;62.50;;;;;;5090946;28;20035;-71
2021/06/01 09:13:03;;;;;;;6.47;3.30;;;21.20;62.00;;;;;;5090561;28;20026;-77
2021/06/01 09:15:30;;;;;;;5.18;3.63;;;21.20;61.80;;;;;;5086915;28;20027;-71
2021/06/01 09:21:15;;;;;;;7.38;3.97;;;21.40;61.70;;;;;;5091303;28;20097;-69
2021/06/01 09:23:57;;;;;;;4.97;2.95;;;21.40;60.70;;;;;;5090620;28;20020;-69
2021/06/01 09:26:54;;;;;;;6.53;3.65;;;21.50;61.20;;;;;;5090045;28;20522;-62
2021/06/01 09:29:20;;;;;;;8.07;3.60;;;21.60;60.00;;;;;;5090786;28;20488;-63
2021/06/01 09:32:03;;;;;;;8.45;2.95;;;21.60;60.40;;;;;;5088772;28;20468;-63
2021/06/01 09:34:40;;;;;;;6.00;3.40;;;21.70;60.70;;;;;;5090887;28;20085;-63
2021/06/01 09:37:19;;;;;;;5.72;3.67;;;21.70;58.50;;;;;;5089641;28;20039;-73
2021/06/01 09:39:46;;;;;;;5.45;2.97;;;21.80;58.60;;;;;;5089898;28;20029;-72
2021/06/01 09:42:28;;;;;;;7.05;3.40;;;21.80;58.00;;;;;;5090682;28;20020;-66
2021/06/01 09:45:11;;;;;;;5.97;3.17;;;21.90;57.70;;;;;;5090364;28;20024;-69
2021/06/01 09:47:48;;;;;;;5.38;3.08;;;21.90;59.00;;;;;;5093987;28;20035;-63
2021/06/01 09:50:23;;;;;;;5.78;3.05;;;22.10;59.10;;;;;;5094667;28;20023;-63
2021/06/01 09:52:52;;;;;;;8.73;3.50;;;22.10;57.10;;;;;;5092904;28;20124;-67
2021/06/01 09:55:36;;;;;;;12.35;3.45;;;22.20;56.80;;;;;;5094346;28;20027;-64
2021/06/01 09:58:04;;;;;;;6.63;2.85;;;22.20;57.00;;;;;;5094200;28;20016;-74
2021/06/01 10:00:32;;;;;;;3.92;2.55;;;22.20;56.60;;;;;;5092590;28;20020;-64
2021/06/01 10:03:02;;;;;;;10.35;3.15;;;22.30;56.50;;;;;;5094453;28;20020;-67
2021/06/01 10:05:36;;;;;;;17.00;4.78;;;22.40;55.50;;;;;;5094422;28;20480;-63
2021/06/01 10:08:19;;;;;;;7.30;3.45;;;22.50;55.50;;;;;;5092336;28;20020;-63
2021/06/01 10:10:51;;;;;;;4.45;2.50;;;22.60;54.80;;;;;;5094126;28;20038;-63
2021/06/01 10:13:18;;;;;;;3.05;1.90;;;22.70;53.30;;;;;;5094083;28;20016;-67
2021/06/01 10:15:44;;;;;;;3.08;2.25;;;22.70;53.00;;;;;;5093269;28;20027;-64
2021/06/01 10:18:11;;;;;;;4.25;2.47;;;22.70;51.80;;;;;;5094160;28;20035;-64
2021/06/01 10:20:38;;;;;;;4.32;2.33;;;22.70;51.90;;;;;;5093718;28;20020;-68
2021/06/01 10:23:05;;;;;;;4.07;2.60;;;22.70;51.50;;;;;;5093409;28;20016;-65
2021/06/01 10:25:31;;;;;;;5.15;2.28;;;22.80;50.60;;;;;;5093664;28;20044;-65
2021/06/01 10:28:02;;;;;;;9.55;2.30;;;22.90;50.70;;;;;;5093855;28;20024;-68
2021/06/01 10:30:34;;;;;;;5.03;2.40;;;23.00;51.50;;;;;;5094090;28;20028;-63
2021/06/01 10:33:03;;;;;;;4.78;2.38;;;23.10;49.10;;;;;;5093871;28;20021;-66
2021/06/01 10:35:43;;;;;;;3.58;1.98;;;23.00;47.30;;;;;;5093221;28;20028;-64
2021/06/01 10:44:20;;;;;;;3.38;2.10;;;23.20;48.90;;;;;;5092734;28;20043;-65
2021/06/01 10:52:09;;;;;;;2.35;1.85;;;23.40;46.40;;;;;;5093326;28;20040;-63
2021/06/01 10:54:48;;;;;;;3.50;1.90;;;23.30;46.20;;;;;;5093169;28;20008;-65
2021/06/01 10:57:15;;;;;;;4.97;2.60;;;23.40;46.10;;;;;;5090866;28;20111;-64
2021/06/01 11:02:22;;;;;;;8.37;2.40;;;23.40;46.00;;;;;;5093865;28;20115;-65
2021/06/01 11:05:14;;;;;;;2.38;1.63;;;23.40;44.80;;;;;;5092136;28;20127;-66
2021/06/01 11:07:59;;;;;;;4.18;1.90;;;23.40;43.90;;;;;;5093248;28;20043;-67
2021/06/01 11:10:43;;;;;;;4.22;2.05;;;23.50;43.60;;;;;;5092813;28;20019;-65
2021/06/01 11:13:10;;;;;;;7.43;2.97;;;23.50;44.10;;;;;;5093107;28;20028;-65
2021/06/01 11:15:38;;;;;;;2.97;2.00;;;23.50;44.40;;;;;;5092746;28;20388;-67
2021/06/01 11:18:17;;;;;;;2.60;2.08;;;23.60;44.70;;;;;;5092310;28;20416;-63
2021/06/01 11:21:17;;;;;;;1.92;1.80;;;23.50;44.40;;;;;;5092883;28;20024;-63
2021/06/01 11:24:18;;;;;;;2.08;1.88;;;23.60;44.10;;;;;;5092753;28;20016;-64
2021/06/01 11:35:30;;;;;;;4.38;2.03;;;23.90;42.60;;;;;;5092655;28;20115;-64
2021/06/01 11:38:15;;;;;;;1.77;1.50;;;23.90;42.50;;;;;;5091381;28;20396;-72
2021/06/01 11:41:07;;;;;;;2.50;2.05;;;24.00;42.80;;;;;;5091978;28;20024;-67
2021/06/01 11:43:33;;;;;;;2.63;1.77;;;24.10;43.90;;;;;;5092358;28;20028;-71
2021/06/01 11:51:26;;;;;;;3.50;2.28;;;24.30;42.40;;;;;;5092156;28;20437;-65
2021/06/01 11:54:09;;;;;;;3.08;1.80;;;24.40;41.80;;;;;;5091452;28;20024;-72
2021/06/01 12:02:27;;;;;;;2.58;1.75;;;24.60;40.80;;;;;;5092400;28;20171;-65
2021/06/01 12:05:01;;;;;;;3.78;1.70;;;24.60;41.10;;;;;;5090541;28;20081;-70
2021/06/01 12:19:08;;;;;;;2.75;1.60;;;24.90;41.60;;;;;;5092056;28;20042;-67
2021/06/01 12:21:37;;;;;;;2.45;2.00;;;24.90;39.70;;;;;;5089803;28;20030;-70
2021/06/01 12:24:10;;;;;;;2.85;1.98;;;24.90;39.60;;;;;;5091447;28;20105;-64
2021/06/01 12:32:16;;;;;;;1.83;1.40;;;25.00;41.10;;;;;;5091696;28;20124;-65
2021/06/01 13:14:35;;;;;;;2.10;1.63;;;25.90;39.70;;;;;;5091047;28;20065;-64
2021/06/01 13:20:12;;;;;;;2.20;1.92;;;25.90;39.90;;;;;;5090811;28;20418;-64
2021/06/01 13:22:52;;;;;;;2.05;1.83;;;26.00;38.70;;;;;;5090673;28;20024;-63
2021/06/01 13:37:32;;;;;;;4.57;2.10;;;25.90;39.40;;;;;;5090832;28;20034;-64
2021/06/01 13:40:39;;;;;;;4.47;1.80;;;25.90;39.50;;;;;;5090182;28;20027;-65
2021/06/01 13:46:38;;;;;;;2.25;1.80;;;26.10;41.30;;;;;;5089611;28;20131;-65
2021/06/01 13:50:24;;;;;;;2.92;1.60;;;26.20;39.80;;;;;;5090340;28;20043;-64
2021/06/01 14:00:12;;;;;;;2.20;1.48;;;26.10;40.70;;;;;;5089768;28;20032;-65
2021/06/01 14:11:24;;;;;;;2.47;2.05;;;26.20;39.10;;;;;;5090532;28;20365;-68
2021/06/01 14:19:45;;;;;;;2.17;1.55;;;26.30;37.80;;;;;;5090205;28;20122;-65
2021/06/01 14:28:19;;;;;;;2.05;1.60;;;26.40;39.00;;;;;;5089571;28;20043;-64
2021/06/01 14:36:26;;;;;;;3.25;1.83;;;26.40;38.20;;;;;;5093035;28;20073;-64
2021/06/01 15:04:53;;;;;;;1.73;1.38;;;26.50;39.90;;;;;;5089106;28;20459;-65
2021/06/01 16:41:39;;;;;;;1.50;1.40;;;32.80;33.80;;;;;;5091109;28;20039;-67
2021/06/01 17:06:18;;;;;;;3.88;1.63;;;33.90;30.90;;;;;;5089201;28;20369;-69
2021/06/01 17:11:17;;;;;;;2.35;1.20;;;34.10;29.80;;;;;;5089730;28;20449;-67
2021/06/01 17:14:02;;;;;;;1.63;1.30;;;33.80;28.40;;;;;;5104570;28;20020;-67
2021/06/01 17:19:29;;;;;;;2.08;1.20;;;33.50;31.70;;;;;;5088990;28;20468;-72
2021/06/01 17:35:41;;;;;;;3.13;1.40;;;34.00;30.00;;;;;;5087429;28;20419;-70
2021/06/01 17:38:08;;;;;;;2.35;1.63;;;33.70;30.70;;;;;;5085902;28;20024;-73
2021/06/01 17:40:35;;;;;;;2.85;1.80;;;33.50;29.20;;;;;;5086209;28;20192;-66
2021/06/01 17:43:04;;;;;;;2.85;1.40;;;33.40;29.80;;;;;;5086543;28;20417;-67
2021/06/01 17:45:35;;;;;;;2.13;1.40;;;33.30;29.30;;;;;;5086862;28;20373;-71
2021/06/01 17:48:04;;;;;;;2.58;1.70;;;33.20;29.40;;;;;;5086490;28;20024;-67
2021/06/01 17:50:30;;;;;;;1.45;1.35;;;33.20;31.70;;;;;;5086857;28;20080;-71
2021/06/01 17:52:58;;;;;;;3.03;1.50;;;33.10;29.40;;;;;;5086125;28;20024;-67
2021/06/01 17:55:26;;;;;;;2.30;1.40;;;33.00;29.80;;;;;;5087168;28;20067;-69
2021/06/01 17:57:52;;;;;;;1.20;1.10;;;32.90;30.20;;;;;;5086362;28;20086;-66
2021/06/01 18:00:21;;;;;;;1.33;1.20;;;32.80;29.60;;;;;;5086576;28;20093;-67
2021/06/01 18:02:50;;;;;;;1.63;1.20;;;32.60;29.00;;;;;;5087140;28;20407;-67
2021/06/01 18:05:23;;;;;;;1.77;1.30;;;32.40;30.40;;;;;;5085861;28;20436;-68
2021/06/01 18:08:14;;;;;;;1.60;1.10;;;32.10;29.70;;;;;;5088143;28;20025;-68
2021/06/01 18:41:18;;;;;;;1.85;1.75;;;25.50;44.20;;;;;;5088808;28;20466;-67
2021/06/01 18:52:34;;;;;;;3.55;2.20;;;25.60;41.50;;;;;;5110790;28;20622;-70
2021/06/01 19:00:51;;;;;;;3.45;1.80;;;24.70;41.60;;;;;;5089959;28;20120;-69
2021/06/01 19:51:20;;;;;;;3.97;2.25;;;19.60;65.30;;;;;;5090892;28;20051;-69